createdAt,value
2018-09-29T00:02:14.730Z,3.17
2018-09-29T00:04:45.380Z,2.50
2018-09-29T00:07:16.976Z,2.60
2018-09-29T00:09:48.040Z,2.83
2018-09-29T00:12:19.393Z,3.10
2018-09-29T00:14:49.906Z,3.20
2018-09-29T00:17:20.514Z,3.17
2018-09-29T00:19:51.182Z,3.20
2018-09-29T00:22:22.519Z,3.80
2018-09-29T00:24:53.740Z,2.60
2018-09-29T00:27:24.540Z,3.10
2018-09-29T00:29:54.921Z,3.23
2018-09-29T00:32:25.047Z,2.47
2018-09-29T00:34:56.130Z,2.90
2018-09-29T00:37:26.892Z,2.93
2018-09-29T00:39:57.863Z,2.67
2018-09-29T00:42:28.749Z,2.57
2018-09-29T00:44:59.905Z,2.43
2018-09-29T00:47:30.429Z,2.83
2018-09-29T00:50:01.238Z,3.17
2018-09-29T00:52:31.353Z,2.57
2018-09-29T00:55:01.715Z,2.60
2018-09-29T00:57:32.226Z,2.60
2018-09-29T01:00:02.811Z,2.80
2018-09-29T01:02:33.363Z,3.03
2018-09-29T01:05:03.745Z,3.17
2018-09-29T01:07:35.165Z,3.07
2018-09-29T01:10:06.279Z,3.37
2018-09-29T01:12:38.301Z,3.40
2018-09-29T01:15:09.075Z,3.30
2018-09-29T01:17:41.786Z,2.67
2018-09-29T01:20:12.413Z,2.60
2018-09-29T01:22:43.625Z,3.07
2018-09-29T01:25:15.952Z,3.27
2018-09-29T01:27:48.955Z,2.87
2018-09-29T01:30:20.015Z,2.70
2018-09-29T01:32:51.410Z,3.30
2018-09-29T01:35:21.941Z,2.80
2018-09-29T01:37:52.544Z,2.93
2018-09-29T01:40:25.120Z,2.50
2018-09-29T01:42:56.601Z,2.90
2018-09-29T01:45:29.231Z,2.83
2018-09-29T01:47:59.397Z,2.67
2018-09-29T01:50:29.546Z,2.30
2018-09-29T01:53:00.745Z,3.00
2018-09-29T01:55:32.101Z,3.17
2018-09-29T01:58:03.409Z,2.40
2018-09-29T02:00:34.900Z,2.53
2018-09-29T02:03:11.137Z,2.90
2018-09-29T02:05:42.861Z,2.47
2018-09-29T02:08:14.620Z,2.73
2018-09-29T02:10:44.843Z,2.37
2018-09-29T02:13:15.094Z,2.20
2018-09-29T02:15:44.960Z,2.50
2018-09-29T02:18:15.947Z,2.73
2018-09-29T02:20:46.870Z,2.50
2018-09-29T02:23:19.115Z,2.73
2018-09-29T02:25:51.422Z,2.70
2018-09-29T02:28:24.011Z,2.13
2018-09-29T02:30:54.051Z,2.67
2018-09-29T02:33:24.473Z,2.23
2018-09-29T02:35:54.811Z,2.70
2018-09-29T02:38:25.002Z,2.37
2018-09-29T02:40:55.432Z,2.30
2018-09-29T02:43:26.641Z,3.33
2018-09-29T02:45:59.395Z,2.30
2018-09-29T02:49:55.746Z,2.33
2018-09-29T02:52:28.361Z,2.40
2018-09-29T02:54:58.644Z,2.93
2018-09-29T02:57:30.044Z,2.50
2018-09-29T03:00:02.371Z,2.60
2018-09-29T03:02:35.971Z,2.47
2018-09-29T03:05:07.711Z,2.50
2018-09-29T03:07:39.547Z,1.60
2018-09-29T03:10:11.497Z,2.17
2018-09-29T03:12:43.189Z,2.43
2018-09-29T03:15:18.644Z,3.23
2018-09-29T03:17:50.144Z,2.77
2018-09-29T03:20:21.911Z,3.13
2018-09-29T03:22:53.150Z,2.80
2018-09-29T03:25:24.935Z,2.40
2018-09-29T03:27:55.579Z,2.57
2018-09-29T03:30:26.417Z,2.50
2018-09-29T03:32:57.092Z,2.33
2018-09-29T03:35:28.137Z,2.53
2018-09-29T03:37:59.398Z,2.30
2018-09-29T03:40:30.472Z,2.30
2018-09-29T03:43:01.207Z,2.37
2018-09-29T03:45:31.043Z,2.40
2018-09-29T03:48:01.905Z,2.90
2018-09-29T03:50:32.291Z,2.33
2018-09-29T03:53:02.384Z,2.67
2018-09-29T03:55:32.560Z,2.60
2018-09-29T03:58:02.506Z,2.10
2018-09-29T04:00:32.808Z,1.73
2018-09-29T04:03:02.855Z,2.90
2018-09-29T04:05:33.225Z,2.20
2018-09-29T04:08:03.216Z,2.33
2018-09-29T04:10:33.170Z,2.30
2018-09-29T04:13:03.028Z,2.50
2018-09-29T04:15:33.225Z,2.40
2018-09-29T04:18:03.127Z,2.47
2018-09-29T04:20:33.146Z,2.67
2018-09-29T04:23:03.823Z,2.33
2018-09-29T04:25:33.941Z,3.00
2018-09-29T04:28:04.282Z,2.43
2018-09-29T04:30:34.397Z,2.20
2018-09-29T04:33:04.542Z,1.73
2018-09-29T04:35:34.892Z,2.77
2018-09-29T04:38:04.970Z,2.17
2018-09-29T04:40:34.986Z,2.23
2018-09-29T04:43:05.158Z,2.63
2018-09-29T04:45:35.626Z,2.33
2018-09-29T04:48:06.237Z,1.90
2018-09-29T04:50:37.042Z,2.43
2018-09-29T04:53:07.090Z,2.20
2018-09-29T04:55:37.435Z,2.00
2018-09-29T04:58:08.180Z,2.60
2018-09-29T05:00:38.567Z,1.97
2018-09-29T05:03:08.522Z,2.30
2018-09-29T05:05:39.623Z,2.83
2018-09-29T05:08:10.137Z,2.33
2018-09-29T05:10:40.610Z,2.40
2018-09-29T05:13:11.143Z,2.80
2018-09-29T05:15:40.904Z,2.63
2018-09-29T05:18:10.912Z,2.50
2018-09-29T05:20:43.380Z,2.63
2018-09-29T05:23:13.779Z,2.13
2018-09-29T05:25:43.953Z,2.50
2018-09-29T05:28:14.332Z,2.50
2018-09-29T05:30:44.097Z,2.53
2018-09-29T05:33:14.167Z,2.03
2018-09-29T05:35:44.218Z,2.53
2018-09-29T05:38:14.654Z,2.10
2018-09-29T05:40:44.688Z,2.47
2018-09-29T05:43:15.454Z,2.73
2018-09-29T05:45:46.058Z,2.60
2018-09-29T05:48:18.392Z,2.87
2018-09-29T05:50:51.258Z,2.30
2018-09-29T05:53:21.542Z,3.23
2018-09-29T05:55:51.560Z,2.50
2018-09-29T05:58:22.781Z,2.37
2018-09-29T06:00:52.723Z,2.43
2018-09-29T06:03:22.982Z,2.77
2018-09-29T06:05:55.015Z,2.57
2018-09-29T06:08:25.849Z,2.73
2018-09-29T06:10:56.509Z,2.90
2018-09-29T06:13:26.558Z,3.23
2018-09-29T06:15:58.327Z,2.33
2018-09-29T06:18:29.506Z,2.63
2018-09-29T06:21:01.305Z,2.23
2018-09-29T06:23:31.505Z,2.90
2018-09-29T06:26:03.103Z,3.10
2018-09-29T06:28:32.949Z,3.90
2018-09-29T06:31:03.299Z,3.10
2018-09-29T06:33:33.975Z,4.90
2018-09-29T06:36:04.678Z,6.60
2018-09-29T06:38:37.380Z,7.00
2018-09-29T06:41:12.945Z,7.70
2018-09-29T06:43:43.422Z,9.10
2018-09-29T06:46:15.545Z,8.00
2018-09-29T06:48:46.380Z,9.23
2018-09-29T06:51:18.139Z,7.80
2018-09-29T06:53:49.114Z,7.07
2018-09-29T06:56:19.251Z,6.17
2018-09-29T06:58:51.030Z,5.87
2018-09-29T07:01:21.808Z,5.20
2018-09-29T07:03:52.270Z,4.90
2018-09-29T07:06:22.419Z,4.87
2018-09-29T07:08:52.738Z,3.70
2018-09-29T07:11:22.743Z,3.10
2018-09-29T07:13:57.324Z,2.93
2018-09-29T07:16:27.617Z,2.63
2018-09-29T07:19:02.976Z,2.50
2018-09-29T07:21:34.752Z,3.43
2018-09-29T07:24:04.690Z,2.93
2018-09-29T07:26:35.663Z,2.33
2018-09-29T07:29:05.681Z,2.40
2018-09-29T07:31:35.737Z,2.43
2018-09-29T07:34:06.161Z,1.87
2018-09-29T07:36:36.041Z,2.27
2018-09-29T07:39:08.377Z,1.80
2018-09-29T07:41:40.238Z,2.50
2018-09-29T07:44:11.063Z,2.00
2018-09-29T07:46:44.883Z,2.53
2018-09-29T07:49:15.962Z,2.13
2018-09-29T07:51:49.384Z,2.43
2018-09-29T07:54:21.262Z,2.43
2018-09-29T07:56:51.307Z,3.07
2018-09-29T07:59:22.253Z,2.53
2018-09-29T08:01:52.460Z,3.33
2018-09-29T08:04:22.471Z,2.27
2018-09-29T08:06:53.112Z,2.90
2018-09-29T08:09:23.942Z,2.60
2018-09-29T08:11:54.916Z,3.00
2018-09-29T08:14:26.465Z,2.37
2018-09-29T08:16:57.039Z,2.30
2018-09-29T08:19:28.186Z,2.90
2018-09-29T08:21:58.936Z,2.80
2018-09-29T08:24:30.264Z,2.80
2018-09-29T08:27:01.138Z,3.60
2018-09-29T08:29:32.006Z,3.13
2018-09-29T08:32:02.180Z,2.40
2018-09-29T08:34:32.320Z,3.37
2018-09-29T08:37:03.038Z,2.50
2018-09-29T08:39:33.373Z,2.90
2018-09-29T08:42:03.156Z,2.80
2018-09-29T08:44:33.040Z,3.20
2018-09-29T08:47:03.575Z,2.83
2018-09-29T08:49:33.860Z,4.50
2018-09-29T08:52:03.641Z,2.50
2018-09-29T08:54:34.215Z,11.10
2018-09-29T08:57:04.044Z,5.37
2018-09-29T08:59:34.039Z,2.60
2018-09-29T09:02:04.241Z,3.10
2018-09-29T09:04:34.093Z,3.50
2018-09-29T09:07:04.775Z,4.37
2018-09-29T09:09:35.733Z,2.70
2018-09-29T09:12:05.711Z,3.10
2018-09-29T09:14:36.042Z,2.40
2018-09-29T09:17:06.309Z,2.93
2018-09-29T09:19:36.447Z,3.23
2018-09-29T09:22:07.705Z,2.80
2018-09-29T09:24:38.038Z,2.97
2018-09-29T09:27:08.175Z,4.07
2018-09-29T09:29:39.864Z,3.40
2018-09-29T09:32:09.924Z,2.97
2018-09-29T09:34:40.589Z,2.13
2018-09-29T09:37:16.268Z,2.43
2018-09-29T09:39:46.649Z,2.40
2018-09-29T09:42:17.432Z,4.63
2018-09-29T09:44:47.415Z,3.03
2018-09-29T09:47:17.484Z,2.87
2018-09-29T09:49:48.395Z,2.90
2018-09-29T09:52:19.942Z,2.80
2018-09-29T09:54:50.606Z,2.43
2018-09-29T09:57:20.581Z,2.60
2018-09-29T09:59:51.167Z,2.80
2018-09-29T10:02:26.513Z,2.43
2018-09-29T10:04:56.817Z,3.80
2018-09-29T10:07:27.296Z,4.80
2018-09-29T10:09:59.053Z,3.33
2018-09-29T10:12:29.754Z,2.87
2018-09-29T10:15:00.425Z,2.13
2018-09-29T10:17:31.760Z,2.30
2018-09-29T10:20:01.765Z,3.40
2018-09-29T10:22:31.787Z,3.10
2018-09-29T10:25:02.078Z,2.57
2018-09-29T10:27:32.123Z,6.27
2018-09-29T10:30:02.570Z,3.37
2018-09-29T10:32:32.500Z,4.73
2018-09-29T10:35:02.769Z,3.07
2018-09-29T10:37:34.338Z,2.80
2018-09-29T10:40:10.977Z,2.10
2018-09-29T10:42:45.422Z,2.10
2018-09-29T10:45:19.296Z,3.60
2018-09-29T10:47:51.840Z,2.40
2018-09-29T10:50:21.991Z,2.47
2018-09-29T10:52:51.784Z,1.83
2018-09-29T10:55:22.454Z,2.40
2018-09-29T10:57:54.460Z,2.87
2018-09-29T11:00:28.072Z,2.53
2018-09-29T11:03:03.048Z,2.50
2018-09-29T11:05:36.403Z,2.80
2018-09-29T11:08:08.705Z,2.27
2018-09-29T11:10:41.667Z,2.00
2018-09-29T11:13:19.094Z,2.17
2018-09-29T11:15:58.862Z,2.73
2018-09-29T11:18:33.569Z,2.03
2018-09-29T11:21:10.461Z,3.23
2018-09-29T11:23:55.128Z,1.83
2018-09-29T11:26:35.504Z,1.97
2018-09-29T11:29:17.162Z,2.30
2018-09-29T11:31:50.083Z,1.80
2018-09-29T11:34:29.710Z,2.10
2018-09-29T11:37:02.179Z,2.00
2018-09-29T11:39:39.780Z,2.20
2018-09-29T11:42:15.786Z,2.63
2018-09-29T11:44:59.591Z,1.73
2018-09-29T11:49:24.436Z,2.10
2018-09-29T11:51:57.940Z,1.80
2018-09-29T11:54:30.541Z,1.80
2018-09-29T11:57:04.734Z,1.93
2018-09-29T11:59:36.840Z,2.07
2018-09-29T12:02:07.132Z,1.90
2018-09-29T12:04:39.282Z,2.30
2018-09-29T12:07:09.289Z,2.80
2018-09-29T12:09:39.717Z,2.07
2018-09-29T12:12:14.195Z,2.10
2018-09-29T12:14:45.970Z,2.00
2018-09-29T12:17:21.042Z,1.77
2018-09-29T12:19:59.751Z,2.00
2018-09-29T12:22:30.350Z,1.90
2018-09-29T12:25:03.493Z,1.77
2018-09-29T12:27:38.995Z,1.90
2018-09-29T12:30:20.300Z,2.03
2018-09-29T12:32:53.391Z,2.17
2018-09-29T12:35:27.306Z,2.10
2018-09-29T12:38:00.090Z,1.70
2018-09-29T12:40:31.640Z,1.90
2018-09-29T12:46:03.553Z,1.43
2018-09-29T12:48:39.204Z,2.00
2018-09-29T12:51:15.441Z,2.20
2018-09-29T12:53:50.161Z,2.60
2018-09-29T12:56:29.042Z,1.83
2018-09-29T13:01:52.274Z,1.67
2018-09-29T13:04:26.469Z,1.63
2018-09-29T13:06:57.306Z,1.60
2018-09-29T13:09:30.031Z,2.43
2018-09-29T13:12:05.299Z,2.20
2018-09-29T13:14:49.252Z,1.80
2018-09-29T13:17:20.416Z,2.13
2018-09-29T13:19:56.013Z,2.10
2018-09-29T13:22:28.942Z,1.77
2018-09-29T13:25:04.103Z,1.90
2018-09-29T13:27:44.629Z,2.00
2018-09-29T13:34:37.190Z,2.00
2018-09-29T13:37:10.069Z,1.80
2018-09-29T13:39:45.713Z,2.00
2018-09-29T13:42:23.600Z,1.70
2018-09-29T13:45:00.885Z,2.07
2018-09-29T13:47:32.272Z,1.67
2018-09-29T13:50:13.422Z,1.63
2018-09-29T13:52:50.963Z,2.00
2018-09-29T13:55:24.263Z,2.10
2018-09-29T13:58:03.867Z,1.90
2018-09-29T14:00:53.475Z,1.73
2018-09-29T14:04:30.100Z,1.90
2018-09-29T14:07:02.748Z,2.13
2018-09-29T14:09:34.015Z,2.03
2018-09-29T14:12:05.864Z,2.03
2018-09-29T14:14:39.245Z,2.00
2018-09-29T14:17:12.604Z,2.90
2018-09-29T14:19:45.575Z,2.60
2018-09-29T14:22:17.579Z,2.50
2018-09-29T14:24:48.230Z,3.30
2018-09-29T14:27:19.797Z,5.93
2018-09-29T14:29:49.861Z,2.50
2018-09-29T14:32:21.402Z,3.77
2018-09-29T14:34:51.701Z,6.40
2018-09-29T14:37:29.021Z,4.70
2018-09-29T14:40:00.113Z,6.23
2018-09-29T14:42:30.144Z,4.33
2018-09-29T14:44:59.738Z,4.80
2018-09-29T14:47:30.677Z,2.80
2018-09-29T14:50:01.416Z,1.90
2018-09-29T14:52:36.353Z,2.43
2018-09-29T14:55:08.798Z,2.10
2018-09-29T14:57:38.411Z,2.30
2018-09-29T15:00:09.772Z,1.70
2018-09-29T15:02:40.356Z,1.80
2018-09-29T15:05:10.219Z,1.57
2018-09-29T15:07:40.151Z,2.03
2018-09-29T15:10:12.107Z,1.90
2018-09-29T15:12:42.566Z,2.73
2018-09-29T15:15:12.350Z,1.90
2018-09-29T15:17:43.164Z,2.00
2018-09-29T15:20:12.930Z,2.27
2018-09-29T15:22:45.781Z,2.70
2018-09-29T15:25:15.769Z,1.70
2018-09-29T15:27:45.970Z,2.30
2018-09-29T15:30:18.396Z,2.13
2018-09-29T15:32:48.668Z,2.00
2018-09-29T15:35:21.410Z,2.50
2018-09-29T15:37:51.531Z,1.73
2018-09-29T15:40:22.331Z,2.20
2018-09-29T15:42:54.375Z,1.73
2018-09-29T15:45:25.130Z,1.90
2018-09-29T15:47:58.767Z,2.27
2018-09-29T15:50:28.943Z,2.40
2018-09-29T15:53:01.186Z,2.77
2018-09-29T15:55:31.483Z,2.47
2018-09-29T15:58:01.302Z,2.23
2018-09-29T16:00:31.221Z,3.20
2018-09-29T16:03:01.615Z,2.60
2018-09-29T16:05:32.123Z,2.47
2018-09-29T16:08:04.340Z,3.30
2018-09-29T16:10:35.701Z,2.67
2018-09-29T16:13:07.815Z,3.40
2018-09-29T16:15:39.567Z,2.73
2018-09-29T16:18:10.653Z,2.80
2018-09-29T16:20:40.264Z,2.67
2018-09-29T16:23:09.943Z,3.40
2018-09-29T16:25:40.600Z,3.00
2018-09-29T16:28:10.885Z,3.03
2018-09-29T16:30:40.577Z,2.77
2018-09-29T16:33:11.003Z,2.53
2018-09-29T16:35:40.534Z,3.13
2018-09-29T16:38:10.304Z,4.33
2018-09-29T16:40:41.629Z,3.13
2018-09-29T16:43:11.826Z,3.00
2018-09-29T16:45:42.107Z,3.07
2018-09-29T16:48:12.234Z,3.73
2018-09-29T16:50:42.107Z,3.63
2018-09-29T16:53:12.029Z,3.93
2018-09-29T16:55:41.892Z,3.87
2018-09-29T16:58:12.349Z,4.07
2018-09-29T17:00:41.843Z,3.40
2018-09-29T17:03:11.903Z,3.63
2018-09-29T17:05:41.897Z,3.30
2018-09-29T17:08:12.314Z,3.70
2018-09-29T17:10:42.347Z,3.83
2018-09-29T17:13:12.191Z,3.80
2018-09-29T17:15:42.181Z,4.07
2018-09-29T17:18:12.042Z,3.50
2018-09-29T17:20:41.640Z,2.50
2018-09-29T17:23:11.129Z,2.57
2018-09-29T17:25:41.607Z,3.27
2018-09-29T17:28:11.483Z,3.20
2018-09-29T17:30:41.069Z,3.20
2018-09-29T17:33:10.907Z,3.27
2018-09-29T17:35:40.763Z,3.40
2018-09-29T17:38:11.409Z,3.10
2018-09-29T17:40:41.243Z,3.93
2018-09-29T17:43:10.938Z,4.13
2018-09-29T17:45:41.661Z,5.40
2018-09-29T17:48:12.776Z,4.53
2018-09-29T17:50:45.914Z,3.53
2018-09-29T17:53:15.500Z,4.33
2018-09-29T17:55:45.357Z,3.27
2018-09-29T17:58:14.921Z,3.97
2018-09-29T18:00:44.929Z,4.20
2018-09-29T18:03:17.215Z,3.37
2018-09-29T18:05:50.395Z,3.50
2018-09-29T18:08:24.236Z,3.13
2018-09-29T18:10:54.859Z,3.17
2018-09-29T18:13:33.393Z,3.40
2018-09-29T18:16:04.053Z,2.90
2018-09-29T18:18:34.527Z,2.63
2018-09-29T18:21:05.791Z,2.83
2018-09-29T18:23:36.777Z,3.20
2018-09-29T18:26:06.522Z,3.07
2018-09-29T18:28:36.347Z,3.57
2018-09-29T18:31:06.604Z,3.30
2018-09-29T18:33:36.510Z,2.93
2018-09-29T18:36:06.857Z,3.17
2018-09-29T18:38:39.515Z,3.60
2018-09-29T18:41:10.311Z,3.97
2018-09-29T18:43:41.002Z,3.20
2018-09-29T18:46:10.918Z,3.57
2018-09-29T18:48:42.211Z,3.50
2018-09-29T18:51:12.758Z,3.50
2018-09-29T18:53:43.570Z,3.50
2018-09-29T18:56:15.259Z,4.13
2018-09-29T18:58:47.024Z,3.50
2018-09-29T19:01:17.447Z,3.47
2018-09-29T19:03:49.436Z,3.57
2018-09-29T19:06:21.846Z,3.90
2018-09-29T19:08:53.502Z,3.60
2018-09-29T19:11:28.617Z,3.70
2018-09-29T19:13:59.234Z,3.50
2018-09-29T19:16:30.045Z,4.80
2018-09-29T19:18:59.962Z,3.60
2018-09-29T19:21:30.028Z,4.43
2018-09-29T19:24:00.161Z,3.27
2018-09-29T19:26:32.328Z,3.50
2018-09-29T19:29:02.283Z,3.43
2018-09-29T19:31:33.252Z,3.43
2018-09-29T19:34:03.462Z,3.40
2018-09-29T19:36:33.263Z,3.13
2018-09-29T19:39:05.734Z,2.93
2018-09-29T19:41:35.660Z,2.83
2018-09-29T19:44:06.144Z,2.90
2018-09-29T19:46:36.334Z,2.93
2018-09-29T19:49:06.686Z,3.10
2018-09-29T19:51:36.423Z,3.30
2018-09-29T19:54:07.058Z,3.50
2018-09-29T19:56:38.706Z,3.13
2018-09-29T19:59:10.023Z,3.47
2018-09-29T20:01:40.417Z,3.03
2018-09-29T20:04:10.399Z,3.23
2018-09-29T20:06:45.701Z,3.47
2018-09-29T20:09:18.035Z,2.83
2018-09-29T20:11:48.737Z,3.33
2018-09-29T20:14:19.066Z,3.60
2018-09-29T20:16:49.318Z,2.63
2018-09-29T20:19:21.334Z,3.37
2018-09-29T20:21:51.512Z,3.33
2018-09-29T20:24:22.270Z,3.57
2018-09-29T20:26:56.000Z,3.20
2018-09-29T20:29:25.880Z,3.47
2018-09-29T20:31:56.210Z,3.10
2018-09-29T20:34:26.379Z,3.43
2018-09-29T20:36:56.315Z,4.10
2018-09-29T20:39:28.157Z,5.40
2018-09-29T20:42:00.421Z,4.83
2018-09-29T20:44:32.589Z,5.50
2018-09-29T20:47:03.631Z,4.70
2018-09-29T20:49:33.640Z,4.70
2018-09-29T20:52:05.590Z,5.10
2018-09-29T20:54:37.426Z,4.50
2018-09-29T20:57:08.246Z,4.37
2018-09-29T20:59:38.713Z,4.50
2018-09-29T21:02:08.724Z,4.17
2018-09-29T21:04:40.859Z,4.00
2018-09-29T21:07:11.870Z,4.73
2018-09-29T21:09:44.543Z,3.60
2018-09-29T21:12:14.813Z,3.77
2018-09-29T21:14:45.370Z,4.20
2018-09-29T21:17:16.848Z,4.00
2018-09-29T21:19:46.840Z,4.10
2018-09-29T21:22:20.113Z,3.87
2018-09-29T21:24:50.209Z,4.00
2018-09-29T21:27:20.649Z,3.80
2018-09-29T21:29:52.109Z,4.20
2018-09-29T21:32:26.952Z,3.40
2018-09-29T21:34:57.690Z,3.00
2018-09-29T21:37:27.585Z,3.10
2018-09-29T21:39:59.178Z,3.20
2018-09-29T21:42:30.283Z,2.87
2018-09-29T21:45:00.015Z,3.00
2018-09-29T21:47:31.457Z,3.20
2018-09-29T21:50:02.127Z,3.83
2018-09-29T21:52:33.303Z,5.00
2018-09-29T21:55:03.384Z,4.70
2018-09-29T21:57:38.151Z,4.70
2018-09-29T22:00:11.205Z,4.30
2018-09-29T22:02:43.447Z,3.83
2018-09-29T22:05:14.009Z,3.93
2018-09-29T22:07:43.715Z,3.47
2018-09-29T22:10:14.286Z,4.10
2018-09-29T22:12:44.047Z,3.60
2018-09-29T22:15:13.631Z,3.70
2018-09-29T22:17:44.142Z,2.83
2018-09-29T22:20:15.939Z,3.00
2018-09-29T22:22:46.783Z,3.13
2018-09-29T22:25:19.303Z,3.57
2018-09-29T22:27:49.850Z,3.23
2018-09-29T22:30:21.642Z,3.53
2018-09-29T22:32:52.142Z,2.83
2018-09-29T22:35:25.346Z,3.30
2018-09-29T22:37:56.720Z,3.37
2018-09-29T22:40:26.278Z,2.87
2018-09-29T22:42:55.821Z,3.07
2018-09-29T22:45:31.589Z,3.67
2018-09-29T22:48:01.530Z,3.07
2018-09-29T22:50:32.182Z,3.33
2018-09-29T22:53:02.336Z,3.30
2018-09-29T22:55:32.800Z,3.27
2018-09-29T22:58:03.923Z,3.17
2018-09-29T23:00:33.730Z,2.67
2018-09-29T23:03:04.945Z,3.40
2018-09-29T23:05:35.657Z,3.47
2018-09-29T23:08:07.006Z,3.00
2018-09-29T23:10:37.761Z,3.27
2018-09-29T23:13:09.777Z,3.27
2018-09-29T23:15:42.647Z,2.90
2018-09-29T23:18:14.131Z,3.17
2018-09-29T23:20:44.406Z,3.30
2018-09-29T23:23:15.432Z,2.97
2018-09-29T23:25:45.632Z,3.20
2018-09-29T23:28:16.706Z,3.03
2018-09-29T23:30:47.076Z,3.47
2018-09-29T23:33:18.824Z,3.40
2018-09-29T23:35:48.520Z,4.43
2018-09-29T23:38:19.316Z,3.60
2018-09-29T23:40:49.618Z,2.70
2018-09-29T23:43:19.600Z,4.00
2018-09-29T23:45:50.306Z,3.43
2018-09-29T23:48:20.221Z,3.50
2018-09-29T23:50:49.704Z,3.30
2018-09-29T23:53:20.329Z,3.73
2018-09-29T23:55:52.423Z,2.83
2018-09-29T23:58:23.551Z,3.50
